Terminal Aerodrome Forecast
Issued by NWS

Home | Current Version | Previous Version | Text Only | Print | Product List | Glossary On
Versions: 1 2 3 4 5 6 7 8 9 10 11 12 13 14 15 16 17 18 19 20 21 22 23 24 25 26 27 28 29 30 31 32 33
811
FTUS43 KILX 232128 AAA
TAFBMI
TAF AMD
KBMI 232128Z 2321/2418 06010KT P6SM VCSH OVC020
     FM240000 07013KT P6SM VCSH OVC015
     FM240700 15012KT P6SM BKN010 WS017/18035KT
     FM241300 20015G24KT P6SM BKN010
     FM241600 20016G25KT P6SM BKN020=

USA.gov is the U.S. government's official web portal to all federal, state and local government web resources and services.